createdAt,value
2023-04-02T00:01:37.510Z,10.15
2023-04-02T00:04:14.847Z,9.18
2023-04-02T00:06:40.594Z,9.05
2023-04-02T00:08:46.014Z,9.13
2023-04-02T00:10:55.493Z,9.25
2023-04-02T00:13:05.991Z,9.65
2023-04-02T00:15:18.560Z,9.10
2023-04-02T00:17:25.567Z,9.00
2023-04-02T00:19:40.432Z,9.57
2023-04-02T00:21:49.674Z,9.93
2023-04-02T00:23:57.469Z,9.27
2023-04-02T00:26:05.072Z,9.65
2023-04-02T00:28:10.130Z,9.10
2023-04-02T00:30:18.898Z,8.25
2023-04-02T00:32:27.792Z,9.75
2023-04-02T00:34:36.734Z,9.52
2023-04-02T00:36:42.177Z,10.60
2023-04-02T00:38:48.794Z,10.13
2023-04-02T00:40:55.837Z,9.75
2023-04-02T00:43:04.600Z,9.38
2023-04-02T00:45:20.470Z,9.75
2023-04-02T00:47:30.856Z,9.20
2023-04-02T00:49:39.791Z,9.73
2023-04-02T00:51:49.596Z,9.50
2023-04-02T00:53:57.656Z,10.57
2023-04-02T00:56:04.640Z,9.88
2023-04-02T00:58:20.476Z,9.80
2023-04-02T01:00:30.256Z,9.40
2023-04-02T01:02:38.613Z,8.25
2023-04-02T01:04:44.791Z,8.60
2023-04-02T01:06:53.626Z,9.05
2023-04-02T01:09:20.104Z,8.88
2023-04-02T01:11:40.482Z,8.90
2023-04-02T01:14:00.364Z,8.90
2023-04-02T01:16:14.334Z,7.85
2023-04-02T01:18:31.885Z,9.55
2023-04-02T01:21:05.120Z,8.20
2023-04-02T01:23:17.192Z,9.32
2023-04-02T01:25:28.663Z,9.10
2023-04-02T01:27:41.686Z,7.97
2023-04-02T01:29:52.230Z,8.25
2023-04-02T01:32:00.633Z,9.55
2023-04-02T01:34:10.155Z,8.30
2023-04-02T01:36:21.051Z,8.95
2023-04-02T01:38:33.107Z,7.63
2023-04-02T01:40:43.989Z,8.40
2023-04-02T01:42:55.973Z,8.38
2023-04-02T01:45:10.554Z,9.15
2023-04-02T01:47:17.774Z,8.90
2023-04-02T01:49:25.316Z,9.05
2023-04-02T01:51:33.274Z,8.02
2023-04-02T01:53:38.159Z,8.75
2023-04-02T01:55:46.215Z,8.65
2023-04-02T01:57:56.300Z,8.80
2023-04-02T02:00:13.734Z,7.50
2023-04-02T02:02:19.982Z,7.57
2023-04-02T02:04:25.394Z,8.95
2023-04-02T02:06:31.594Z,8.27
2023-04-02T02:08:41.904Z,7.32
2023-04-02T02:10:52.310Z,7.88
2023-04-02T02:13:00.539Z,6.68
2023-04-02T02:15:16.411Z,6.93
2023-04-02T02:17:26.766Z,7.65
2023-04-02T02:19:35.894Z,7.70
2023-04-02T02:21:45.016Z,8.15
2023-04-02T02:23:49.873Z,7.38
2023-04-02T02:25:57.074Z,7.35
2023-04-02T02:28:06.255Z,7.32
2023-04-02T02:30:20.020Z,7.22
2023-04-02T02:32:28.317Z,6.80
2023-04-02T02:34:40.091Z,7.13
2023-04-02T02:36:50.975Z,5.68
2023-04-02T02:39:01.349Z,7.47
2023-04-02T02:41:10.578Z,6.45
2023-04-02T02:43:17.768Z,6.43
2023-04-02T02:45:30.801Z,6.90
2023-04-02T02:47:39.238Z,7.32
2023-04-02T02:49:46.689Z,7.13
2023-04-02T02:51:56.714Z,6.85
2023-04-02T02:54:06.211Z,7.40
2023-04-02T02:56:13.935Z,7.15
2023-04-02T02:58:23.724Z,7.10
2023-04-02T03:00:32.461Z,7.47
2023-04-02T03:02:40.773Z,6.82
2023-04-02T03:04:50.940Z,7.85
2023-04-02T03:07:00.276Z,6.30
2023-04-02T03:09:28.078Z,6.95
2023-04-02T03:11:40.205Z,6.80
2023-04-02T03:13:49.580Z,7.05
2023-04-02T03:16:12.903Z,6.95
2023-04-02T03:18:28.940Z,8.18
2023-04-02T03:20:40.856Z,7.30
2023-04-02T03:22:53.897Z,7.88
2023-04-02T03:25:03.846Z,7.65
2023-04-02T03:27:16.214Z,8.15
2023-04-02T03:29:25.900Z,7.88
2023-04-02T03:31:39.784Z,7.32
2023-04-02T03:33:49.108Z,7.63
2023-04-02T03:36:01.066Z,8.63
2023-04-02T03:38:13.740Z,7.45
2023-04-02T03:40:23.334Z,8.75
2023-04-02T03:42:30.360Z,7.00
2023-04-02T03:44:43.234Z,8.30
2023-04-02T03:46:57.467Z,8.10
2023-04-02T03:49:05.924Z,7.40
2023-04-02T03:51:17.488Z,7.60
2023-04-02T03:53:26.337Z,7.97
2023-04-02T03:55:36.803Z,8.02
2023-04-02T03:57:51.424Z,7.80
2023-04-02T04:00:02.640Z,7.32
2023-04-02T04:02:19.484Z,8.10
2023-04-02T04:04:28.060Z,7.88
2023-04-02T04:06:36.004Z,8.27
2023-04-02T04:08:48.123Z,6.38
2023-04-02T04:10:55.493Z,7.55
2023-04-02T04:13:06.766Z,7.60
2023-04-02T04:15:19.149Z,8.02
2023-04-02T04:17:34.890Z,7.15
2023-04-02T04:19:45.984Z,6.63
2023-04-02T04:21:58.778Z,7.63
2023-04-02T04:24:06.826Z,7.47
2023-04-02T04:26:25.105Z,8.27
2023-04-02T04:28:41.273Z,7.35
2023-04-02T04:30:55.276Z,7.25
2023-04-02T04:33:09.291Z,6.93
2023-04-02T04:35:24.423Z,6.10
2023-04-02T04:37:36.754Z,7.95
2023-04-02T04:39:45.956Z,7.18
2023-04-02T04:41:52.762Z,8.05
2023-04-02T04:44:05.128Z,6.45
2023-04-02T04:46:15.110Z,7.38
2023-04-02T04:48:29.235Z,7.55
2023-04-02T04:50:39.179Z,7.50
2023-04-02T04:52:46.530Z,7.90
2023-04-02T04:54:52.715Z,7.63
2023-04-02T04:57:06.664Z,6.45
2023-04-02T04:59:20.868Z,7.07
2023-04-02T05:01:32.043Z,6.28
2023-04-02T05:03:47.992Z,8.60
2023-04-02T05:05:53.610Z,6.55
2023-04-02T05:08:04.276Z,6.38
2023-04-02T05:10:18.626Z,6.72
2023-04-02T05:12:35.472Z,6.70
2023-04-02T05:14:49.015Z,6.80
2023-04-02T05:17:02.855Z,7.40
2023-04-02T05:19:17.015Z,6.82
2023-04-02T05:21:31.024Z,6.00
2023-04-02T05:23:45.074Z,7.40
2023-04-02T05:26:02.653Z,6.35
2023-04-02T05:28:15.104Z,6.25
2023-04-02T05:30:49.581Z,7.30
2023-04-02T05:33:00.604Z,8.15
2023-04-02T05:35:11.549Z,8.00
2023-04-02T05:37:20.655Z,8.00
2023-04-02T05:39:27.217Z,6.97
2023-04-02T05:41:39.338Z,8.10
2023-04-02T05:43:49.063Z,6.82
2023-04-02T05:45:57.807Z,7.78
2023-04-02T05:48:17.187Z,6.47
2023-04-02T05:50:32.740Z,7.15
2023-04-02T05:52:42.625Z,7.30
2023-04-02T05:54:51.869Z,6.28
2023-04-02T05:57:04.651Z,7.57
2023-04-02T05:59:14.102Z,6.75
2023-04-02T06:01:27.528Z,6.88
2023-04-02T06:03:45.099Z,6.70
2023-04-02T06:05:54.855Z,6.00
2023-04-02T06:08:06.773Z,6.03
2023-04-02T06:10:20.749Z,6.28
2023-04-02T06:12:34.426Z,5.93
2023-04-02T06:14:41.175Z,5.63
2023-04-02T06:16:48.658Z,6.07
2023-04-02T06:18:53.904Z,6.32
2023-04-02T06:21:01.508Z,7.95
2023-04-02T06:23:16.386Z,7.10
2023-04-02T06:25:27.753Z,6.90
2023-04-02T06:27:41.299Z,6.25
2023-04-02T06:29:48.800Z,6.65
2023-04-02T06:32:00.285Z,6.80
2023-04-02T06:34:08.919Z,6.38
2023-04-02T06:36:16.459Z,7.10
2023-04-02T06:38:26.426Z,6.03
2023-04-02T06:40:43.967Z,6.47
2023-04-02T06:42:56.521Z,4.95
2023-04-02T06:45:01.645Z,7.20
2023-04-02T06:47:13.298Z,5.88
2023-04-02T06:49:26.366Z,6.13
2023-04-02T06:51:44.113Z,6.22
2023-04-02T06:53:50.611Z,5.72
2023-04-02T06:55:59.921Z,6.03
2023-04-02T06:58:04.934Z,4.90
2023-04-02T07:00:33.252Z,6.50
2023-04-02T07:02:43.914Z,5.85
2023-04-02T07:04:50.917Z,6.75
2023-04-02T07:06:58.642Z,5.50
2023-04-02T07:09:05.811Z,4.93
2023-04-02T07:11:21.000Z,5.05
2023-04-02T07:13:27.836Z,5.38
2023-04-02T07:15:33.058Z,4.78
2023-04-02T07:17:40.982Z,5.57
2023-04-02T07:19:49.816Z,6.32
2023-04-02T07:21:54.989Z,5.30
2023-04-02T07:24:02.683Z,5.32
2023-04-02T07:26:11.333Z,4.82
2023-04-02T07:28:16.997Z,5.15
2023-04-02T07:30:26.176Z,5.45
2023-04-02T07:32:31.117Z,5.05
2023-04-02T07:34:40.960Z,4.85
2023-04-02T07:36:48.911Z,4.85
2023-04-02T07:38:56.146Z,5.20
2023-04-02T07:41:09.665Z,4.28
2023-04-02T07:43:16.898Z,5.47
2023-04-02T07:45:22.861Z,5.85
2023-04-02T07:47:29.230Z,5.47
2023-04-02T07:49:35.700Z,5.40
2023-04-02T07:51:41.399Z,5.50
2023-04-02T07:53:50.542Z,5.00
2023-04-02T07:56:05.912Z,5.15
2023-04-02T07:58:16.694Z,5.40
2023-04-02T08:00:26.928Z,5.43
2023-04-02T08:02:37.913Z,3.75
2023-04-02T08:04:42.920Z,4.97
2023-04-02T08:06:50.049Z,4.63
2023-04-02T08:08:57.321Z,4.78
2023-04-02T08:11:04.762Z,4.18
2023-04-02T08:13:12.250Z,3.40
2023-04-02T08:15:25.540Z,4.22
2023-04-02T08:17:31.625Z,5.22
2023-04-02T08:19:53.824Z,4.90
2023-04-02T08:22:04.270Z,4.47
2023-04-02T08:24:20.558Z,3.67
2023-04-02T08:26:28.059Z,3.85
2023-04-02T08:28:46.843Z,4.63
2023-04-02T08:30:56.732Z,4.78
2023-04-02T08:33:05.569Z,5.38
2023-04-02T08:35:13.428Z,4.13
2023-04-02T08:37:23.317Z,4.78
2023-04-02T08:39:33.897Z,5.43
2023-04-02T08:41:50.451Z,5.85
2023-04-02T08:44:19.525Z,4.97
2023-04-02T08:46:29.821Z,4.65
2023-04-02T08:48:39.098Z,5.68
2023-04-02T08:50:48.982Z,4.30
2023-04-02T08:53:02.959Z,4.97
2023-04-02T08:55:32.864Z,4.15
2023-04-02T08:57:53.607Z,5.32
2023-04-02T09:00:11.135Z,4.72
2023-04-02T09:02:39.401Z,3.83
2023-04-02T09:04:45.771Z,4.47
2023-04-02T09:06:59.277Z,5.03
2023-04-02T09:09:15.135Z,4.38
2023-04-02T09:11:27.850Z,5.40
2023-04-02T09:13:37.902Z,4.45
2023-04-02T09:15:42.942Z,4.45
2023-04-02T09:17:54.088Z,4.13
2023-04-02T09:20:05.809Z,4.68
2023-04-02T09:22:24.177Z,4.47
2023-04-02T09:24:30.396Z,4.70
2023-04-02T09:26:37.185Z,4.68
2023-04-02T09:28:44.957Z,5.18
2023-04-02T09:31:04.358Z,4.13
2023-04-02T09:33:10.522Z,4.78
2023-04-02T09:35:26.129Z,4.15
2023-04-02T09:37:41.884Z,4.40
2023-04-02T09:39:47.511Z,4.88
2023-04-02T09:42:02.719Z,4.00
2023-04-02T09:44:23.879Z,4.30
2023-04-02T09:46:28.851Z,3.65
2023-04-02T09:48:36.065Z,4.45
2023-04-02T09:50:41.849Z,4.20
2023-04-02T09:52:50.609Z,4.72
2023-04-02T09:55:22.042Z,3.90
2023-04-02T09:57:28.307Z,4.03
2023-04-02T09:59:37.812Z,4.60
2023-04-02T10:01:44.379Z,3.95
2023-04-02T10:03:49.636Z,4.95
2023-04-02T10:06:10.600Z,4.18
2023-04-02T10:08:23.947Z,4.28
2023-04-02T10:10:35.274Z,4.32
2023-04-02T10:12:49.940Z,4.20
2023-04-02T10:14:59.699Z,4.65
2023-04-02T10:17:20.327Z,4.10
2023-04-02T10:19:35.557Z,4.88
2023-04-02T10:21:45.349Z,5.07
2023-04-02T10:23:56.551Z,5.22
2023-04-02T10:26:21.909Z,5.03
2023-04-02T10:28:48.748Z,4.95
2023-04-02T10:31:06.941Z,5.68
2023-04-02T10:33:21.665Z,5.07
2023-04-02T10:35:53.825Z,4.88
2023-04-02T10:38:50.009Z,5.18
2023-04-02T10:41:08.581Z,4.35
2023-04-02T10:43:57.832Z,4.75
2023-04-02T10:46:12.975Z,4.70
2023-04-02T10:48:29.480Z,4.85
2023-04-02T10:50:41.333Z,4.95
2023-04-02T10:52:54.128Z,4.72
2023-04-02T10:55:08.117Z,4.38
2023-04-02T10:57:25.524Z,4.47
2023-04-02T10:59:37.135Z,4.65
2023-04-02T11:01:49.164Z,5.60
2023-04-02T11:04:02.936Z,4.22
2023-04-02T11:06:16.508Z,5.15
2023-04-02T11:08:25.986Z,4.20
2023-04-02T11:10:37.061Z,4.45
2023-04-02T11:12:46.702Z,4.25
2023-04-02T11:14:53.586Z,4.95
2023-04-02T11:17:08.144Z,4.60
2023-04-02T11:19:26.633Z,4.82
2023-04-02T11:21:57.256Z,4.13
2023-04-02T11:24:09.788Z,4.18
2023-04-02T11:26:45.017Z,4.00
2023-04-02T11:28:49.909Z,3.70
2023-04-02T11:30:58.551Z,3.47
2023-04-02T11:33:41.389Z,3.95
2023-04-02T11:39:01.863Z,3.70
2023-04-02T11:41:38.408Z,4.07
2023-04-02T11:43:54.662Z,3.70
2023-04-02T11:46:09.801Z,3.50
2023-04-02T11:48:31.734Z,3.30
2023-04-02T11:50:39.587Z,3.50
2023-04-02T11:52:57.588Z,3.50
2023-04-02T11:55:39.600Z,3.30
2023-04-02T11:57:59.357Z,2.90
2023-04-02T12:00:23.670Z,2.72
2023-04-02T12:02:34.518Z,3.50
2023-04-02T12:04:58.635Z,3.17
2023-04-02T12:07:36.207Z,3.13
2023-04-02T12:09:55.385Z,3.13
2023-04-02T12:12:19.059Z,3.25
2023-04-02T12:14:54.941Z,4.00
2023-04-02T12:17:32.172Z,2.97
2023-04-02T12:19:46.315Z,3.65
2023-04-02T12:21:57.037Z,3.08
2023-04-02T12:24:04.802Z,3.40
2023-04-02T12:26:38.966Z,3.08
2023-04-02T12:28:47.696Z,3.15
2023-04-02T12:31:15.343Z,2.75
2023-04-02T12:34:05.256Z,2.75
2023-04-02T12:36:22.800Z,2.80
2023-04-02T12:38:41.996Z,3.15
2023-04-02T12:41:10.638Z,2.90
2023-04-02T12:43:58.315Z,2.58
2023-04-02T12:46:48.765Z,2.63
2023-04-02T12:49:25.493Z,2.85
2023-04-02T12:51:31.118Z,2.88
2023-04-02T12:53:54.973Z,2.80
2023-04-02T12:56:17.036Z,3.67
2023-04-02T12:58:35.274Z,2.97
2023-04-02T13:01:03.124Z,2.75
2023-04-02T13:06:16.074Z,2.95
2023-04-02T13:08:34.634Z,2.60
2023-04-02T13:10:55.607Z,2.83
2023-04-02T13:13:19.515Z,3.25
2023-04-02T13:15:47.546Z,3.03
2023-04-02T13:18:10.938Z,3.50
2023-04-02T13:20:44.018Z,3.10
2023-04-02T13:24:20.226Z,3.20
2023-04-02T13:27:20.926Z,3.90
2023-04-02T13:29:48.264Z,3.15
2023-04-02T13:32:50.795Z,2.88
2023-04-02T13:38:18.377Z,2.92
2023-04-02T13:40:36.200Z,3.10
2023-04-02T13:51:37.438Z,3.30
2023-04-02T13:57:43.443Z,3.10
2023-04-02T14:00:38.550Z,2.83
2023-04-02T14:03:14.374Z,3.08
2023-04-02T14:05:30.659Z,2.78
2023-04-02T14:07:51.154Z,3.13
2023-04-02T14:10:22.974Z,3.45
2023-04-02T14:12:41.518Z,4.13
2023-04-02T14:15:03.516Z,3.20
2023-04-02T14:17:17.058Z,3.78
2023-04-02T14:19:38.081Z,3.53
2023-04-02T14:21:56.601Z,3.03
2023-04-02T14:24:16.516Z,3.70
2023-04-02T14:26:33.581Z,3.97
2023-04-02T14:28:49.510Z,3.50
2023-04-02T14:31:01.953Z,3.50
2023-04-02T14:33:13.020Z,3.38
2023-04-02T14:35:24.621Z,3.67
2023-04-02T14:37:37.098Z,3.17
2023-04-02T14:39:47.687Z,3.92
2023-04-02T14:42:01.075Z,3.63
2023-04-02T14:44:10.863Z,3.50
2023-04-02T14:46:15.685Z,3.38
2023-04-02T14:48:31.774Z,3.28
2023-04-02T14:50:42.152Z,4.03
2023-04-02T14:52:54.005Z,3.30
2023-04-02T14:55:05.784Z,3.25
2023-04-02T14:57:24.000Z,3.47
2023-04-02T14:59:38.345Z,3.30
2023-04-02T15:09:20.143Z,3.38
2023-04-02T15:28:27.341Z,3.30
2023-04-02T15:45:31.270Z,3.63
2023-04-02T15:52:31.650Z,2.75
2023-04-02T16:33:39.991Z,2.47
2023-04-02T16:35:54.956Z,2.72
2023-04-02T16:38:08.164Z,2.92
2023-04-02T16:42:36.674Z,3.13
2023-04-02T16:44:54.237Z,2.83
2023-04-02T16:47:13.725Z,2.65
2023-04-02T16:49:32.745Z,2.90
2023-04-02T16:51:46.412Z,2.75
2023-04-02T16:54:02.192Z,2.30
2023-04-02T16:56:24.499Z,2.55
2023-04-02T16:58:46.847Z,2.50
2023-04-02T17:00:56.587Z,2.83
2023-04-02T17:03:12.594Z,2.60
2023-04-02T17:05:33.076Z,2.50
2023-04-02T17:07:43.834Z,2.83
2023-04-02T17:09:52.498Z,3.03
2023-04-02T17:12:06.712Z,2.53
2023-04-02T17:14:22.257Z,2.33
2023-04-02T17:16:35.386Z,2.45
2023-04-02T17:21:38.309Z,2.40
2023-04-02T17:23:56.342Z,2.40
2023-04-02T17:26:09.011Z,2.55
2023-04-02T17:28:18.390Z,2.20
2023-04-02T17:30:38.695Z,2.67
2023-04-02T17:32:43.794Z,2.05
2023-04-02T17:34:48.926Z,2.47
2023-04-02T17:37:08.290Z,2.70
2023-04-02T17:39:23.829Z,2.30
2023-04-02T17:41:38.417Z,2.42
2023-04-02T17:43:51.072Z,2.30
2023-04-02T17:45:59.424Z,2.55
2023-04-02T17:48:08.892Z,1.98
2023-04-02T17:50:55.309Z,2.47
2023-04-02T17:53:19.476Z,2.65
2023-04-02T17:55:34.429Z,2.28
2023-04-02T17:57:52.375Z,2.72
2023-04-02T18:00:05.916Z,2.70
2023-04-02T18:02:28.291Z,2.25
2023-04-02T18:04:43.507Z,2.40
2023-04-02T18:06:59.217Z,2.53
2023-04-02T18:09:25.511Z,3.75
2023-04-02T18:11:38.762Z,2.45
2023-04-02T18:13:45.232Z,2.70
2023-04-02T18:16:05.207Z,2.45
2023-04-02T18:18:20.224Z,2.80
2023-04-02T18:20:33.188Z,3.03
2023-04-02T18:25:19.399Z,2.47
2023-04-02T18:27:49.210Z,3.67
2023-04-02T18:30:03.158Z,2.75
2023-04-02T18:32:32.459Z,2.60
2023-04-02T18:34:52.704Z,2.60
2023-04-02T18:37:11.044Z,2.70
2023-04-02T18:39:23.627Z,2.83
2023-04-02T18:41:47.340Z,3.20
2023-04-02T18:44:09.737Z,2.72
2023-04-02T18:46:25.370Z,3.20
2023-04-02T18:48:43.874Z,2.80
2023-04-02T18:50:51.889Z,2.83
2023-04-02T18:52:56.811Z,2.95
2023-04-02T18:55:08.675Z,2.80
2023-04-02T18:57:17.287Z,3.25
2023-04-02T18:59:38.657Z,2.28
2023-04-02T19:01:46.784Z,2.85
2023-04-02T19:04:03.848Z,2.72
2023-04-02T19:06:12.820Z,2.40
2023-04-02T19:08:23.118Z,2.72
2023-04-02T19:10:33.966Z,3.40
2023-04-02T19:12:38.925Z,2.60
2023-04-02T19:14:50.236Z,2.38
2023-04-02T19:17:05.104Z,2.53
2023-04-02T19:19:18.406Z,3.00
2023-04-02T19:21:36.916Z,3.60
2023-04-02T19:23:58.910Z,2.85
2023-04-02T19:26:09.645Z,3.22
2023-04-02T19:28:21.768Z,3.40
2023-04-02T19:30:41.297Z,3.75
2023-04-02T19:32:55.710Z,3.42
2023-04-02T19:35:13.383Z,3.20
2023-04-02T19:37:23.774Z,3.67
2023-04-02T19:39:46.981Z,3.83
2023-04-02T19:41:56.122Z,2.97
2023-04-02T19:44:01.174Z,2.70
2023-04-02T19:46:09.198Z,3.00
2023-04-02T19:48:17.862Z,2.95
2023-04-02T19:50:22.813Z,3.08
2023-04-02T19:52:27.561Z,3.25
2023-04-02T19:54:32.451Z,3.17
2023-04-02T19:56:38.226Z,2.80
2023-04-02T19:58:43.174Z,3.10
2023-04-02T20:00:48.104Z,3.15
2023-04-02T20:02:55.599Z,3.17
2023-04-02T20:05:00.519Z,2.72
2023-04-02T20:07:05.865Z,3.20
2023-04-02T20:09:12.647Z,3.45
2023-04-02T20:11:17.690Z,3.00
2023-04-02T20:13:24.913Z,3.35
2023-04-02T20:15:29.673Z,3.75
2023-04-02T20:17:34.582Z,3.75
2023-04-02T20:19:42.472Z,4.03
2023-04-02T20:21:47.473Z,3.58
2023-04-02T20:23:55.970Z,3.38
2023-04-02T20:26:00.865Z,3.17
2023-04-02T20:28:05.791Z,4.28
2023-04-02T20:30:16.225Z,3.45
2023-04-02T20:32:21.196Z,3.70
2023-04-02T20:34:29.269Z,3.28
2023-04-02T20:36:36.944Z,3.17
2023-04-02T20:38:42.625Z,3.10
2023-04-02T20:40:53.065Z,2.83
2023-04-02T20:55:39.384Z,2.65
2023-04-02T20:57:44.188Z,3.00
2023-04-02T20:59:49.128Z,2.85
2023-04-02T21:01:54.093Z,2.22
2023-04-02T21:04:00.757Z,2.55
2023-04-02T21:06:05.674Z,2.53
2023-04-02T21:08:10.847Z,2.60
2023-04-02T21:10:16.897Z,2.70
2023-04-02T21:12:25.163Z,2.78
2023-04-02T21:14:31.626Z,2.65
2023-04-02T21:16:36.847Z,2.50
2023-04-02T21:26:18.958Z,2.10
2023-04-02T21:41:50.160Z,2.35
2023-04-02T21:43:55.606Z,2.42
2023-04-02T21:46:01.724Z,2.70
2023-04-02T21:48:06.794Z,2.45
2023-04-02T21:50:12.946Z,2.20
2023-04-02T21:52:18.624Z,2.47
2023-04-02T21:54:23.811Z,2.42
2023-04-02T21:56:30.788Z,2.22
2023-04-02T21:58:38.505Z,2.42
2023-04-02T22:00:43.794Z,3.15
2023-04-02T22:02:48.788Z,2.50
2023-04-02T22:04:55.258Z,2.10
2023-04-02T22:07:00.358Z,2.00
2023-04-02T22:09:09.539Z,1.92
2023-04-02T22:11:16.376Z,2.15
2023-04-02T22:13:21.183Z,1.95
2023-04-02T22:15:28.534Z,1.88
2023-04-02T22:17:33.440Z,2.00
2023-04-02T22:19:38.299Z,1.85
2023-04-02T22:21:43.975Z,1.63
2023-04-02T22:23:49.577Z,1.67
2023-04-02T22:25:54.378Z,1.77
2023-04-02T22:27:59.446Z,1.90
2023-04-02T22:30:07.312Z,2.33
2023-04-02T22:32:14.816Z,1.98
2023-04-02T22:34:19.894Z,1.80
2023-04-02T22:36:26.096Z,2.08
2023-04-02T22:38:31.893Z,1.90
2023-04-02T22:40:37.358Z,1.67
2023-04-02T22:42:46.802Z,2.28
2023-04-02T22:44:52.749Z,1.50
2023-04-02T22:46:57.623Z,1.98
2023-04-02T22:49:05.037Z,1.90
2023-04-02T22:51:11.715Z,1.55
2023-04-02T22:54:29.542Z,2.03
2023-04-02T23:06:17.634Z,2.13
2023-04-02T23:09:11.966Z,1.88
2023-04-02T23:14:56.829Z,1.83
2023-04-02T23:21:23.227Z,1.67
2023-04-02T23:35:56.773Z,2.00
2023-04-02T23:40:53.896Z,2.45
2023-04-02T23:43:00.927Z,1.92
2023-04-02T23:45:12.599Z,1.95
2023-04-02T23:47:17.337Z,2.00
2023-04-02T23:49:22.600Z,2.38
2023-04-02T23:51:29.140Z,2.65
2023-04-02T23:53:33.896Z,2.30
2023-04-02T23:55:41.118Z,2.00
2023-04-02T23:57:48.837Z,1.83
2023-04-02T23:59:54.995Z,2.10
